sensor_id;sensor_type;location;lat;lon;timestamp;temperature;humidity
12634;DHT22;6382;48.614;8.880;2023-11-21T00:02:26;7.20;99.90
12634;DHT22;6382;48.614;8.880;2023-11-21T00:04:54;7.60;99.90
12634;DHT22;6382;48.614;8.880;2023-11-21T00:07:21;7.20;99.90
12634;DHT22;6382;48.614;8.880;2023-11-21T00:09:48;7.20;99.90
12634;DHT22;6382;48.614;8.880;2023-11-21T00:12:14;7.20;99.90
12634;DHT22;6382;48.614;8.880;2023-11-21T00:14:41;7.20;99.90
12634;DHT22;6382;48.614;8.880;2023-11-21T00:17:08;7.30;99.90
12634;DHT22;6382;48.614;8.880;2023-11-21T00:19:35;7.20;99.90
12634;DHT22;6382;48.614;8.880;2023-11-21T00:22:02;7.20;99.90
12634;DHT22;6382;48.614;8.880;2023-11-21T00:24:29;7.20;99.90
12634;DHT22;6382;48.614;8.880;2023-11-21T00:26:55;7.20;99.90
12634;DHT22;6382;48.614;8.880;2023-11-21T00:29:22;7.20;99.90
12634;DHT22;6382;48.614;8.880;2023-11-21T00:31:49;7.20;99.90
12634;DHT22;6382;48.614;8.880;2023-11-21T00:34:16;7.20;99.90
12634;DHT22;6382;48.614;8.880;2023-11-21T00:36:43;7.20;99.90
12634;DHT22;6382;48.614;8.880;2023-11-21T00:39:09;7.20;99.90
12634;DHT22;6382;48.614;8.880;2023-11-21T00:41:36;7.20;99.90
12634;DHT22;6382;48.614;8.880;2023-11-21T00:44:03;7.20;99.90
12634;DHT22;6382;48.614;8.880;2023-11-21T00:46:31;7.20;99.90
12634;DHT22;6382;48.614;8.880;2023-11-21T00:48:57;7.20;99.90
12634;DHT22;6382;48.614;8.880;2023-11-21T00:51:24;7.20;99.90
12634;DHT22;6382;48.614;8.880;2023-11-21T00:53:51;7.20;99.90
12634;DHT22;6382;48.614;8.880;2023-11-21T00:56:18;7.20;99.90
12634;DHT22;6382;48.614;8.880;2023-11-21T00:58:45;7.20;99.90
12634;DHT22;6382;48.614;8.880;2023-11-21T01:01:16;7.20;99.90
12634;DHT22;6382;48.614;8.880;2023-11-21T01:03:43;7.20;99.90
12634;DHT22;6382;48.614;8.880;2023-11-21T01:06:10;7.20;99.90
12634;DHT22;6382;48.614;8.880;2023-11-21T01:08:40;7.10;99.90
12634;DHT22;6382;48.614;8.880;2023-11-21T01:11:06;7.10;99.90
12634;DHT22;6382;48.614;8.880;2023-11-21T01:13:39;7.10;99.90
12634;DHT22;6382;48.614;8.880;2023-11-21T01:16:07;7.10;99.90
12634;DHT22;6382;48.614;8.880;2023-11-21T01:18:34;7.10;99.90
12634;DHT22;6382;48.614;8.880;2023-11-21T01:21:01;7.00;99.90
12634;DHT22;6382;48.614;8.880;2023-11-21T01:23:28;7.10;99.90
12634;DHT22;6382;48.614;8.880;2023-11-21T01:25:55;7.10;99.90
12634;DHT22;6382;48.614;8.880;2023-11-21T01:28:22;7.10;99.90
12634;DHT22;6382;48.614;8.880;2023-11-21T01:30:49;7.10;99.90
12634;DHT22;6382;48.614;8.880;2023-11-21T01:33:16;7.10;99.90
12634;DHT22;6382;48.614;8.880;2023-11-21T01:35:43;7.10;99.90
12634;DHT22;6382;48.614;8.880;2023-11-21T01:38:09;7.10;99.90
12634;DHT22;6382;48.614;8.880;2023-11-21T01:40:36;7.10;99.90
12634;DHT22;6382;48.614;8.880;2023-11-21T01:43:03;7.00;99.90
12634;DHT22;6382;48.614;8.880;2023-11-21T01:45:29;7.10;99.90
12634;DHT22;6382;48.614;8.880;2023-11-21T01:48:00;7.00;99.90
12634;DHT22;6382;48.614;8.880;2023-11-21T01:50:27;6.90;99.90
12634;DHT22;6382;48.614;8.880;2023-11-21T01:52:54;6.90;99.90
12634;DHT22;6382;48.614;8.880;2023-11-21T01:55:21;6.90;99.90
12634;DHT22;6382;48.614;8.880;2023-11-21T01:57:54;6.80;99.90
12634;DHT22;6382;48.614;8.880;2023-11-21T02:00:21;6.80;99.90
12634;DHT22;6382;48.614;8.880;2023-11-21T02:02:48;6.80;99.90
12634;DHT22;6382;48.614;8.880;2023-11-21T02:05:15;6.80;99.90
12634;DHT22;6382;48.614;8.880;2023-11-21T02:07:45;6.90;99.90
12634;DHT22;6382;48.614;8.880;2023-11-21T02:10:14;6.90;99.90
12634;DHT22;6382;48.614;8.880;2023-11-21T02:12:42;6.90;99.90
12634;DHT22;6382;48.614;8.880;2023-11-21T02:15:12;6.90;99.90
12634;DHT22;6382;48.614;8.880;2023-11-21T02:17:42;7.00;99.90
12634;DHT22;6382;48.614;8.880;2023-11-21T02:20:10;6.90;99.90
12634;DHT22;6382;48.614;8.880;2023-11-21T02:22:41;6.90;99.90
12634;DHT22;6382;48.614;8.880;2023-11-21T02:25:08;7.00;99.90
12634;DHT22;6382;48.614;8.880;2023-11-21T02:27:35;6.90;99.90
12634;DHT22;6382;48.614;8.880;2023-11-21T02:30:03;6.90;99.90
12634;DHT22;6382;48.614;8.880;2023-11-21T02:32:31;6.90;99.90
12634;DHT22;6382;48.614;8.880;2023-11-21T02:34:58;6.90;99.90
12634;DHT22;6382;48.614;8.880;2023-11-21T02:37:27;6.90;99.90
12634;DHT22;6382;48.614;8.880;2023-11-21T02:39:54;6.90;99.90
12634;DHT22;6382;48.614;8.880;2023-11-21T02:42:21;6.90;99.90
12634;DHT22;6382;48.614;8.880;2023-11-21T02:44:48;6.90;99.90
12634;DHT22;6382;48.614;8.880;2023-11-21T02:47:15;6.90;99.90
12634;DHT22;6382;48.614;8.880;2023-11-21T02:49:42;6.80;99.90
12634;DHT22;6382;48.614;8.880;2023-11-21T02:52:08;6.90;99.90
12634;DHT22;6382;48.614;8.880;2023-11-21T02:54:35;6.90;99.90
12634;DHT22;6382;48.614;8.880;2023-11-21T02:57:03;6.80;99.90
12634;DHT22;6382;48.614;8.880;2023-11-21T02:59:30;6.90;99.90
12634;DHT22;6382;48.614;8.880;2023-11-21T03:01:56;6.90;99.90
12634;DHT22;6382;48.614;8.880;2023-11-21T03:04:23;6.90;99.90
12634;DHT22;6382;48.614;8.880;2023-11-21T03:06:50;6.80;99.90
12634;DHT22;6382;48.614;8.880;2023-11-21T03:09:17;6.90;99.90
12634;DHT22;6382;48.614;8.880;2023-11-21T03:11:44;8.10;99.90
12634;DHT22;6382;48.614;8.880;2023-11-21T03:14:10;6.80;99.90
12634;DHT22;6382;48.614;8.880;2023-11-21T03:16:37;6.80;99.90
12634;DHT22;6382;48.614;8.880;2023-11-21T03:19:04;6.80;99.90
12634;DHT22;6382;48.614;8.880;2023-11-21T03:21:31;6.90;99.90
12634;DHT22;6382;48.614;8.880;2023-11-21T03:23:58;6.80;99.90
12634;DHT22;6382;48.614;8.880;2023-11-21T03:26:26;6.80;99.90
12634;DHT22;6382;48.614;8.880;2023-11-21T03:28:53;6.80;99.90
12634;DHT22;6382;48.614;8.880;2023-11-21T03:31:20;6.80;99.90
12634;DHT22;6382;48.614;8.880;2023-11-21T03:33:47;6.90;99.90
12634;DHT22;6382;48.614;8.880;2023-11-21T03:36:14;6.80;99.90
12634;DHT22;6382;48.614;8.880;2023-11-21T03:38:41;6.80;99.90
12634;DHT22;6382;48.614;8.880;2023-11-21T03:41:08;6.90;99.90
12634;DHT22;6382;48.614;8.880;2023-11-21T03:43:38;6.90;99.90
12634;DHT22;6382;48.614;8.880;2023-11-21T03:46:04;6.90;99.90
12634;DHT22;6382;48.614;8.880;2023-11-21T03:48:31;6.80;99.90
12634;DHT22;6382;48.614;8.880;2023-11-21T03:50:59;6.90;99.90
12634;DHT22;6382;48.614;8.880;2023-11-21T03:53:26;6.80;99.90
12634;DHT22;6382;48.614;8.880;2023-11-21T03:55:53;6.90;99.90
12634;DHT22;6382;48.614;8.880;2023-11-21T03:58:19;6.80;99.90
12634;DHT22;6382;48.614;8.880;2023-11-21T04:00:47;6.80;99.90
12634;DHT22;6382;48.614;8.880;2023-11-21T04:03:15;6.80;99.90
12634;DHT22;6382;48.614;8.880;2023-11-21T04:05:42;6.90;99.90
12634;DHT22;6382;48.614;8.880;2023-11-21T04:08:09;6.90;99.90
12634;DHT22;6382;48.614;8.880;2023-11-21T04:10:35;6.90;99.90
12634;DHT22;6382;48.614;8.880;2023-11-21T04:13:02;6.90;99.90
12634;DHT22;6382;48.614;8.880;2023-11-21T04:15:29;6.90;99.90
12634;DHT22;6382;48.614;8.880;2023-11-21T04:17:56;6.90;99.90
12634;DHT22;6382;48.614;8.880;2023-11-21T04:20:23;6.90;99.90
12634;DHT22;6382;48.614;8.880;2023-11-21T04:22:50;6.90;99.90
12634;DHT22;6382;48.614;8.880;2023-11-21T04:25:17;6.90;99.90
12634;DHT22;6382;48.614;8.880;2023-11-21T04:27:44;7.00;99.90
12634;DHT22;6382;48.614;8.880;2023-11-21T04:30:12;7.00;99.90
12634;DHT22;6382;48.614;8.880;2023-11-21T04:32:39;6.90;99.90
12634;DHT22;6382;48.614;8.880;2023-11-21T04:35:06;6.90;99.90
12634;DHT22;6382;48.614;8.880;2023-11-21T04:37:35;6.90;99.90
12634;DHT22;6382;48.614;8.880;2023-11-21T04:40:02;6.90;99.90
12634;DHT22;6382;48.614;8.880;2023-11-21T04:42:34;6.90;99.90
12634;DHT22;6382;48.614;8.880;2023-11-21T04:45:00;6.90;99.90
12634;DHT22;6382;48.614;8.880;2023-11-21T04:47:27;6.90;99.90
12634;DHT22;6382;48.614;8.880;2023-11-21T04:49:55;6.90;99.90
12634;DHT22;6382;48.614;8.880;2023-11-21T04:52:22;6.90;99.90
12634;DHT22;6382;48.614;8.880;2023-11-21T04:54:48;7.50;99.90
12634;DHT22;6382;48.614;8.880;2023-11-21T04:57:15;6.90;99.90
12634;DHT22;6382;48.614;8.880;2023-11-21T04:59:44;6.80;99.90
12634;DHT22;6382;48.614;8.880;2023-11-21T05:02:11;6.80;99.90
12634;DHT22;6382;48.614;8.880;2023-11-21T05:04:53;6.90;99.90
12634;DHT22;6382;48.614;8.880;2023-11-21T05:07:20;6.90;99.90
12634;DHT22;6382;48.614;8.880;2023-11-21T05:09:47;6.90;99.90
12634;DHT22;6382;48.614;8.880;2023-11-21T05:12:14;6.90;99.90
12634;DHT22;6382;48.614;8.880;2023-11-21T05:14:41;7.50;99.90
12634;DHT22;6382;48.614;8.880;2023-11-21T05:17:08;6.90;99.90
12634;DHT22;6382;48.614;8.880;2023-11-21T05:19:35;6.90;99.90
12634;DHT22;6382;48.614;8.880;2023-11-21T05:22:02;6.90;99.90
12634;DHT22;6382;48.614;8.880;2023-11-21T05:24:28;6.90;99.90
12634;DHT22;6382;48.614;8.880;2023-11-21T05:26:55;6.90;99.90
12634;DHT22;6382;48.614;8.880;2023-11-21T05:29:22;6.80;99.90
12634;DHT22;6382;48.614;8.880;2023-11-21T05:31:49;6.90;99.90
12634;DHT22;6382;48.614;8.880;2023-11-21T05:34:16;6.90;99.90
12634;DHT22;6382;48.614;8.880;2023-11-21T05:36:44;6.90;99.90
12634;DHT22;6382;48.614;8.880;2023-11-21T05:39:12;6.90;99.90
12634;DHT22;6382;48.614;8.880;2023-11-21T05:41:39;6.90;99.90
12634;DHT22;6382;48.614;8.880;2023-11-21T05:44:06;6.90;99.90
12634;DHT22;6382;48.614;8.880;2023-11-21T05:46:33;6.90;99.90
12634;DHT22;6382;48.614;8.880;2023-11-21T05:48:59;6.80;99.90
12634;DHT22;6382;48.614;8.880;2023-11-21T05:51:26;6.80;99.90
12634;DHT22;6382;48.614;8.880;2023-11-21T05:53:53;6.80;99.90
12634;DHT22;6382;48.614;8.880;2023-11-21T05:56:20;6.80;99.90
12634;DHT22;6382;48.614;8.880;2023-11-21T05:58:46;6.70;99.90
12634;DHT22;6382;48.614;8.880;2023-11-21T06:01:13;6.60;99.90
12634;DHT22;6382;48.614;8.880;2023-11-21T06:03:41;6.60;99.90
12634;DHT22;6382;48.614;8.880;2023-11-21T06:06:07;6.60;99.90
12634;DHT22;6382;48.614;8.880;2023-11-21T06:08:34;6.60;99.90
12634;DHT22;6382;48.614;8.880;2023-11-21T06:11:01;6.60;99.90
12634;DHT22;6382;48.614;8.880;2023-11-21T06:13:28;6.60;99.90
12634;DHT22;6382;48.614;8.880;2023-11-21T06:15:55;6.60;99.90
12634;DHT22;6382;48.614;8.880;2023-11-21T06:18:21;6.60;99.90
12634;DHT22;6382;48.614;8.880;2023-11-21T06:20:48;6.60;99.90
12634;DHT22;6382;48.614;8.880;2023-11-21T06:23:15;6.60;99.90
12634;DHT22;6382;48.614;8.880;2023-11-21T06:25:42;6.60;99.90
12634;DHT22;6382;48.614;8.880;2023-11-21T06:28:09;7.20;99.90
12634;DHT22;6382;48.614;8.880;2023-11-21T06:30:36;6.60;99.90
12634;DHT22;6382;48.614;8.880;2023-11-21T06:33:03;6.70;99.90
12634;DHT22;6382;48.614;8.880;2023-11-21T06:35:30;6.70;99.90
12634;DHT22;6382;48.614;8.880;2023-11-21T06:37:59;6.70;99.90
12634;DHT22;6382;48.614;8.880;2023-11-21T06:40:25;6.70;99.90
12634;DHT22;6382;48.614;8.880;2023-11-21T06:42:52;6.70;99.90
12634;DHT22;6382;48.614;8.880;2023-11-21T06:45:19;6.70;99.90
12634;DHT22;6382;48.614;8.880;2023-11-21T06:47:47;6.70;99.90
12634;DHT22;6382;48.614;8.880;2023-11-21T06:50:14;6.70;99.90
12634;DHT22;6382;48.614;8.880;2023-11-21T06:52:40;6.70;99.90
12634;DHT22;6382;48.614;8.880;2023-11-21T06:55:07;6.70;99.90
12634;DHT22;6382;48.614;8.880;2023-11-21T06:57:35;6.70;99.90
12634;DHT22;6382;48.614;8.880;2023-11-21T07:00:01;6.80;99.90
12634;DHT22;6382;48.614;8.880;2023-11-21T07:02:29;6.80;99.90
12634;DHT22;6382;48.614;8.880;2023-11-21T07:04:55;6.80;99.90
12634;DHT22;6382;48.614;8.880;2023-11-21T07:07:22;6.80;99.90
12634;DHT22;6382;48.614;8.880;2023-11-21T07:09:49;6.80;99.90
12634;DHT22;6382;48.614;8.880;2023-11-21T07:12:16;6.80;99.90
12634;DHT22;6382;48.614;8.880;2023-11-21T07:14:42;6.80;99.90
12634;DHT22;6382;48.614;8.880;2023-11-21T07:17:11;6.80;99.90
12634;DHT22;6382;48.614;8.880;2023-11-21T07:19:38;6.80;99.90
12634;DHT22;6382;48.614;8.880;2023-11-21T07:22:05;7.50;99.90
12634;DHT22;6382;48.614;8.880;2023-11-21T07:24:32;6.80;99.90
12634;DHT22;6382;48.614;8.880;2023-11-21T07:26:59;6.80;99.90
12634;DHT22;6382;48.614;8.880;2023-11-21T07:29:25;6.80;99.90
12634;DHT22;6382;48.614;8.880;2023-11-21T07:31:53;6.80;99.90
12634;DHT22;6382;48.614;8.880;2023-11-21T07:34:20;6.80;99.90
12634;DHT22;6382;48.614;8.880;2023-11-21T07:36:48;6.80;99.90
12634;DHT22;6382;48.614;8.880;2023-11-21T07:39:14;6.80;99.90
12634;DHT22;6382;48.614;8.880;2023-11-21T07:41:43;6.80;99.90
12634;DHT22;6382;48.614;8.880;2023-11-21T07:44:18;6.90;99.90
12634;DHT22;6382;48.614;8.880;2023-11-21T07:46:46;6.90;99.90
12634;DHT22;6382;48.614;8.880;2023-11-21T07:49:13;6.40;99.90
12634;DHT22;6382;48.614;8.880;2023-11-21T07:51:43;6.90;99.90
12634;DHT22;6382;48.614;8.880;2023-11-21T07:54:11;6.90;99.90
12634;DHT22;6382;48.614;8.880;2023-11-21T07:56:38;6.90;99.90
12634;DHT22;6382;48.614;8.880;2023-11-21T07:59:05;7.00;99.90
12634;DHT22;6382;48.614;8.880;2023-11-21T08:01:32;7.00;99.90
12634;DHT22;6382;48.614;8.880;2023-11-21T08:03:59;7.00;99.90
12634;DHT22;6382;48.614;8.880;2023-11-21T08:06:30;7.00;99.90
12634;DHT22;6382;48.614;8.880;2023-11-21T08:08:57;7.10;99.90
12634;DHT22;6382;48.614;8.880;2023-11-21T08:11:24;7.10;99.90
12634;DHT22;6382;48.614;8.880;2023-11-21T08:13:52;7.10;99.90
12634;DHT22;6382;48.614;8.880;2023-11-21T08:16:21;7.20;99.90
12634;DHT22;6382;48.614;8.880;2023-11-21T08:18:48;7.20;99.90
12634;DHT22;6382;48.614;8.880;2023-11-21T08:21:14;7.20;99.90
12634;DHT22;6382;48.614;8.880;2023-11-21T08:23:41;7.20;99.90
12634;DHT22;6382;48.614;8.880;2023-11-21T08:26:08;7.30;99.90
12634;DHT22;6382;48.614;8.880;2023-11-21T08:28:35;7.30;99.90
12634;DHT22;6382;48.614;8.880;2023-11-21T08:31:02;7.40;99.90
12634;DHT22;6382;48.614;8.880;2023-11-21T08:33:31;7.40;99.90
12634;DHT22;6382;48.614;8.880;2023-11-21T08:35:57;7.50;99.90
12634;DHT22;6382;48.614;8.880;2023-11-21T08:38:24;8.90;99.90
12634;DHT22;6382;48.614;8.880;2023-11-21T08:40:51;7.60;99.90
12634;DHT22;6382;48.614;8.880;2023-11-21T08:43:17;7.60;99.90
12634;DHT22;6382;48.614;8.880;2023-11-21T08:45:46;7.70;99.90
12634;DHT22;6382;48.614;8.880;2023-11-21T08:48:13;7.70;99.90
12634;DHT22;6382;48.614;8.880;2023-11-21T08:50:40;7.70;99.90
12634;DHT22;6382;48.614;8.880;2023-11-21T08:53:07;7.80;99.90
12634;DHT22;6382;48.614;8.880;2023-11-21T08:55:33;7.80;99.90
12634;DHT22;6382;48.614;8.880;2023-11-21T08:58:04;7.80;99.90
12634;DHT22;6382;48.614;8.880;2023-11-21T09:00:32;7.80;99.90
12634;DHT22;6382;48.614;8.880;2023-11-21T09:02:59;7.80;99.90
12634;DHT22;6382;48.614;8.880;2023-11-21T09:05:27;7.90;99.90
12634;DHT22;6382;48.614;8.880;2023-11-21T09:07:54;7.80;99.90
12634;DHT22;6382;48.614;8.880;2023-11-21T09:10:21;7.90;99.90
12634;DHT22;6382;48.614;8.880;2023-11-21T09:12:48;7.80;99.90
12634;DHT22;6382;48.614;8.880;2023-11-21T09:15:15;7.80;99.90
12634;DHT22;6382;48.614;8.880;2023-11-21T09:17:42;7.80;99.90
12634;DHT22;6382;48.614;8.880;2023-11-21T09:20:10;7.80;99.90
12634;DHT22;6382;48.614;8.880;2023-11-21T09:22:37;7.80;99.90
12634;DHT22;6382;48.614;8.880;2023-11-21T09:25:04;7.90;99.90
12634;DHT22;6382;48.614;8.880;2023-11-21T09:27:31;7.90;99.90
12634;DHT22;6382;48.614;8.880;2023-11-21T09:29:58;7.90;99.90
12634;DHT22;6382;48.614;8.880;2023-11-21T09:32:25;7.90;99.90
12634;DHT22;6382;48.614;8.880;2023-11-21T09:34:52;8.00;99.90
12634;DHT22;6382;48.614;8.880;2023-11-21T09:37:22;8.00;99.90
12634;DHT22;6382;48.614;8.880;2023-11-21T09:39:49;8.00;99.90
12634;DHT22;6382;48.614;8.880;2023-11-21T09:42:17;8.00;99.90
12634;DHT22;6382;48.614;8.880;2023-11-21T09:47:32;8.10;99.90
12634;DHT22;6382;48.614;8.880;2023-11-21T09:50:02;8.20;99.90
12634;DHT22;6382;48.614;8.880;2023-11-21T09:52:29;8.30;99.90
12634;DHT22;6382;48.614;8.880;2023-11-21T09:54:59;8.30;99.90
12634;DHT22;6382;48.614;8.880;2023-11-21T09:57:27;8.40;99.90
12634;DHT22;6382;48.614;8.880;2023-11-21T09:59:54;8.30;99.90
12634;DHT22;6382;48.614;8.880;2023-11-21T10:02:26;8.40;99.90
12634;DHT22;6382;48.614;8.880;2023-11-21T10:04:55;8.40;99.90
12634;DHT22;6382;48.614;8.880;2023-11-21T10:07:23;8.50;99.90
12634;DHT22;6382;48.614;8.880;2023-11-21T10:09:50;8.40;99.90
12634;DHT22;6382;48.614;8.880;2023-11-21T10:12:17;8.50;99.90
12634;DHT22;6382;48.614;8.880;2023-11-21T10:14:47;8.50;99.90
12634;DHT22;6382;48.614;8.880;2023-11-21T10:17:14;8.50;99.90
12634;DHT22;6382;48.614;8.880;2023-11-21T10:19:42;8.50;99.90
12634;DHT22;6382;48.614;8.880;2023-11-21T10:22:09;8.60;99.90
12634;DHT22;6382;48.614;8.880;2023-11-21T10:24:36;8.60;99.90
12634;DHT22;6382;48.614;8.880;2023-11-21T10:27:17;10.00;99.90
12634;DHT22;6382;48.614;8.880;2023-11-21T10:29:45;10.00;99.90
12634;DHT22;6382;48.614;8.880;2023-11-21T10:32:12;8.70;99.90
12634;DHT22;6382;48.614;8.880;2023-11-21T10:34:39;10.50;99.90
12634;DHT22;6382;48.614;8.880;2023-11-21T10:37:11;9.40;99.90
12634;DHT22;6382;48.614;8.880;2023-11-21T10:39:39;8.80;99.90
12634;DHT22;6382;48.614;8.880;2023-11-21T10:42:10;9.80;99.90
12634;DHT22;6382;48.614;8.880;2023-11-21T10:44:37;8.60;99.90
12634;DHT22;6382;48.614;8.880;2023-11-21T10:47:04;8.70;99.90
12634;DHT22;6382;48.614;8.880;2023-11-21T10:49:32;8.80;99.90
12634;DHT22;6382;48.614;8.880;2023-11-21T10:51:59;7.00;99.90
12634;DHT22;6382;48.614;8.880;2023-11-21T10:54:26;9.10;99.90
12634;DHT22;6382;48.614;8.880;2023-11-21T10:56:56;10.20;99.90
12634;DHT22;6382;48.614;8.880;2023-11-21T10:59:23;10.30;99.90
12634;DHT22;6382;48.614;8.880;2023-11-21T11:01:52;9.20;99.90
12634;DHT22;6382;48.614;8.880;2023-11-21T11:04:19;9.20;99.90
12634;DHT22;6382;48.614;8.880;2023-11-21T11:06:50;9.70;99.90
12634;DHT22;6382;48.614;8.880;2023-11-21T11:09:18;9.10;99.90
12634;DHT22;6382;48.614;8.880;2023-11-21T11:11:45;9.70;99.90
12634;DHT22;6382;48.614;8.880;2023-11-21T11:14:13;9.60;99.90
12634;DHT22;6382;48.614;8.880;2023-11-21T11:16:40;9.60;99.90
12634;DHT22;6382;48.614;8.880;2023-11-21T11:19:07;9.60;99.90
12634;DHT22;6382;48.614;8.880;2023-11-21T11:26:57;6.70;99.90
12634;DHT22;6382;48.614;8.880;2023-11-21T11:29:32;7.90;99.90
12634;DHT22;6382;48.614;8.880;2023-11-21T11:32:08;8.70;99.90
12634;DHT22;6382;48.614;8.880;2023-11-21T11:34:37;8.40;99.90
12634;DHT22;6382;48.614;8.880;2023-11-21T11:37:08;9.90;99.90
12634;DHT22;6382;48.614;8.880;2023-11-21T11:39:39;10.00;99.90
12634;DHT22;6382;48.614;8.880;2023-11-21T11:42:11;8.30;99.90
12634;DHT22;6382;48.614;8.880;2023-11-21T11:47:28;8.30;99.90
12634;DHT22;6382;48.614;8.880;2023-11-21T11:50:11;8.30;99.90
12634;DHT22;6382;48.614;8.880;2023-11-21T11:52:44;8.40;99.90
12634;DHT22;6382;48.614;8.880;2023-11-21T11:55:12;9.70;99.90
12634;DHT22;6382;48.614;8.880;2023-11-21T11:57:42;9.90;99.90
12634;DHT22;6382;48.614;8.880;2023-11-21T12:00:11;8.20;99.90
12634;DHT22;6382;48.614;8.880;2023-11-21T12:02:38;8.20;99.90
12634;DHT22;6382;48.614;8.880;2023-11-21T12:05:13;10.00;99.90
12634;DHT22;6382;48.614;8.880;2023-11-21T12:07:44;8.00;99.90
12634;DHT22;6382;48.614;8.880;2023-11-21T12:10:16;8.00;99.90
12634;DHT22;6382;48.614;8.880;2023-11-21T12:12:48;8.10;99.90
12634;DHT22;6382;48.614;8.880;2023-11-21T12:15:15;9.80;99.90
12634;DHT22;6382;48.614;8.880;2023-11-21T12:17:45;9.10;99.90
12634;DHT22;6382;48.614;8.880;2023-11-21T12:20:13;9.40;99.90
12634;DHT22;6382;48.614;8.880;2023-11-21T12:22:47;8.80;99.90
12634;DHT22;6382;48.614;8.880;2023-11-21T12:25:19;9.30;99.90
12634;DHT22;6382;48.614;8.880;2023-11-21T12:27:46;8.10;99.90
12634;DHT22;6382;48.614;8.880;2023-11-21T12:30:13;6.50;99.90
12634;DHT22;6382;48.614;8.880;2023-11-21T12:32:44;7.10;99.90
12634;DHT22;6382;48.614;8.880;2023-11-21T12:35:13;8.40;99.90
12634;DHT22;6382;48.614;8.880;2023-11-21T12:37:40;8.50;99.90
12634;DHT22;6382;48.614;8.880;2023-11-21T12:40:07;8.30;99.90
12634;DHT22;6382;48.614;8.880;2023-11-21T12:42:35;8.40;99.90
12634;DHT22;6382;48.614;8.880;2023-11-21T12:47:47;9.90;99.90
12634;DHT22;6382;48.614;8.880;2023-11-21T12:50:20;8.60;99.90
12634;DHT22;6382;48.614;8.880;2023-11-21T12:52:50;10.30;99.90
12634;DHT22;6382;48.614;8.880;2023-11-21T12:55:19;8.60;99.90
12634;DHT22;6382;48.614;8.880;2023-11-21T12:57:48;8.50;99.90
12634;DHT22;6382;48.614;8.880;2023-11-21T13:00:18;9.50;99.90
12634;DHT22;6382;48.614;8.880;2023-11-21T13:02:54;8.60;99.90
12634;DHT22;6382;48.614;8.880;2023-11-21T13:05:27;9.70;99.90
12634;DHT22;6382;48.614;8.880;2023-11-21T13:08:00;8.40;99.90
12634;DHT22;6382;48.614;8.880;2023-11-21T13:10:30;8.40;99.90
12634;DHT22;6382;48.614;8.880;2023-11-21T13:13:04;9.00;99.90
12634;DHT22;6382;48.614;8.880;2023-11-21T13:15:32;8.50;99.90
12634;DHT22;6382;48.614;8.880;2023-11-21T13:17:59;8.50;99.90
12634;DHT22;6382;48.614;8.880;2023-11-21T13:20:27;8.50;99.90
12634;DHT22;6382;48.614;8.880;2023-11-21T13:22:56;10.80;99.90
12634;DHT22;6382;48.614;8.880;2023-11-21T13:25:30;9.50;99.90
12634;DHT22;6382;48.614;8.880;2023-11-21T13:35:24;7.40;99.90
12634;DHT22;6382;48.614;8.880;2023-11-21T13:37:48;7.80;99.90
12634;DHT22;6382;48.614;8.880;2023-11-21T13:40:54;10.10;99.90
12634;DHT22;6382;48.614;8.880;2023-11-21T13:43:35;9.20;99.90
12634;DHT22;6382;48.614;8.880;2023-11-21T13:46:12;8.60;99.90
12634;DHT22;6382;48.614;8.880;2023-11-21T13:48:50;8.50;99.90
12634;DHT22;6382;48.614;8.880;2023-11-21T13:51:26;9.90;99.90
12634;DHT22;6382;48.614;8.880;2023-11-21T13:54:06;8.50;99.90
12634;DHT22;6382;48.614;8.880;2023-11-21T13:56:41;7.30;99.90
12634;DHT22;6382;48.614;8.880;2023-11-21T13:59:12;8.30;99.90
12634;DHT22;6382;48.614;8.880;2023-11-21T14:01:50;8.60;99.90
12634;DHT22;6382;48.614;8.880;2023-11-21T14:04:20;9.70;99.90
12634;DHT22;6382;48.614;8.880;2023-11-21T14:07:01;9.90;99.90
12634;DHT22;6382;48.614;8.880;2023-11-21T14:09:45;7.40;99.90
12634;DHT22;6382;48.614;8.880;2023-11-21T14:12:12;9.70;99.90
12634;DHT22;6382;48.614;8.880;2023-11-21T14:14:42;9.10;99.90
12634;DHT22;6382;48.614;8.880;2023-11-21T14:17:14;7.90;99.90
12634;DHT22;6382;48.614;8.880;2023-11-21T14:19:41;7.90;99.90
12634;DHT22;6382;48.614;8.880;2023-11-21T14:22:10;6.90;99.90
12634;DHT22;6382;48.614;8.880;2023-11-21T14:24:37;7.80;99.90
12634;DHT22;6382;48.614;8.880;2023-11-21T14:27:11;8.10;99.90
12634;DHT22;6382;48.614;8.880;2023-11-21T14:29:38;7.70;99.90
12634;DHT22;6382;48.614;8.880;2023-11-21T14:32:10;7.60;99.90
12634;DHT22;6382;48.614;8.880;2023-11-21T14:34:37;6.60;99.90
12634;DHT22;6382;48.614;8.880;2023-11-21T14:37:05;8.00;99.90
12634;DHT22;6382;48.614;8.880;2023-11-21T14:39:31;7.50;99.90
12634;DHT22;6382;48.614;8.880;2023-11-21T14:42:04;8.90;99.90
12634;DHT22;6382;48.614;8.880;2023-11-21T14:44:33;9.30;99.90
12634;DHT22;6382;48.614;8.880;2023-11-21T14:47:05;8.70;99.90
12634;DHT22;6382;48.614;8.880;2023-11-21T14:49:39;7.40;99.90
12634;DHT22;6382;48.614;8.880;2023-11-21T14:52:19;7.40;99.90
12634;DHT22;6382;48.614;8.880;2023-11-21T14:55:02;7.40;99.90
12634;DHT22;6382;48.614;8.880;2023-11-21T14:57:52;8.40;99.90
12634;DHT22;6382;48.614;8.880;2023-11-21T15:00:20;7.30;99.90
12634;DHT22;6382;48.614;8.880;2023-11-21T15:03:11;7.90;99.90
12634;DHT22;6382;48.614;8.880;2023-11-21T15:05:51;7.30;99.90
12634;DHT22;6382;48.614;8.880;2023-11-21T15:08:18;7.10;99.90
12634;DHT22;6382;48.614;8.880;2023-11-21T15:10:53;7.20;99.90
12634;DHT22;6382;48.614;8.880;2023-11-21T15:13:21;8.10;99.90
12634;DHT22;6382;48.614;8.880;2023-11-21T15:15:54;7.20;99.90
12634;DHT22;6382;48.614;8.880;2023-11-21T15:18:21;8.50;99.90
12634;DHT22;6382;48.614;8.880;2023-11-21T15:20:49;9.40;99.90
12634;DHT22;6382;48.614;8.880;2023-11-21T15:23:16;7.20;99.90
12634;DHT22;6382;48.614;8.880;2023-11-21T15:25:46;7.20;99.90
12634;DHT22;6382;48.614;8.880;2023-11-21T15:28:12;7.20;99.90
12634;DHT22;6382;48.614;8.880;2023-11-21T15:30:39;8.60;99.90
12634;DHT22;6382;48.614;8.880;2023-11-21T15:33:07;7.10;99.90
12634;DHT22;6382;48.614;8.880;2023-11-21T15:35:36;7.10;99.90
12634;DHT22;6382;48.614;8.880;2023-11-21T15:38:04;7.00;99.90
12634;DHT22;6382;48.614;8.880;2023-11-21T15:40:31;7.00;99.90
12634;DHT22;6382;48.614;8.880;2023-11-21T15:42:58;7.00;99.90
12634;DHT22;6382;48.614;8.880;2023-11-21T15:45:26;7.00;99.90
12634;DHT22;6382;48.614;8.880;2023-11-21T15:47:52;7.00;99.90
12634;DHT22;6382;48.614;8.880;2023-11-21T15:50:20;7.00;99.90
12634;DHT22;6382;48.614;8.880;2023-11-21T15:52:47;7.00;99.90
12634;DHT22;6382;48.614;8.880;2023-11-21T15:55:24;6.90;99.90
12634;DHT22;6382;48.614;8.880;2023-11-21T15:57:51;6.90;99.90
12634;DHT22;6382;48.614;8.880;2023-11-21T16:00:17;6.90;99.90
12634;DHT22;6382;48.614;8.880;2023-11-21T16:02:46;6.90;99.90
12634;DHT22;6382;48.614;8.880;2023-11-21T16:05:13;6.90;99.90
12634;DHT22;6382;48.614;8.880;2023-11-21T16:07:41;6.90;99.90
12634;DHT22;6382;48.614;8.880;2023-11-21T16:10:08;6.90;99.90
12634;DHT22;6382;48.614;8.880;2023-11-21T16:12:37;6.90;99.90
12634;DHT22;6382;48.614;8.880;2023-11-21T16:15:07;6.90;99.90
12634;DHT22;6382;48.614;8.880;2023-11-21T16:17:37;6.90;99.90
12634;DHT22;6382;48.614;8.880;2023-11-21T16:20:05;6.90;99.90
12634;DHT22;6382;48.614;8.880;2023-11-21T16:22:38;6.90;99.90
12634;DHT22;6382;48.614;8.880;2023-11-21T16:25:05;6.90;99.90
12634;DHT22;6382;48.614;8.880;2023-11-21T16:27:37;6.90;99.90
12634;DHT22;6382;48.614;8.880;2023-11-21T16:30:04;6.90;99.90
12634;DHT22;6382;48.614;8.880;2023-11-21T16:32:30;6.90;99.90